Time;durP1;ratioP1;P1;durP2;ratioP2;P2;SDS_P1;SDS_P2;PMS_P1;PMS_P2;Temp;Humidity;BMP_temperature;BMP_pressure;BME280_temperature;BME280_humidity;BME280_pressure;Samples;Min_cycle;Max_cycle;Signal;HPM_P1;HPM_P2
2022/09/20 00:00:30;;;;;;;;;;;;;;;;;;2131554;27;20019;-44
2022/09/20 00:01:31;;;;;;;;;;;;;;;;;;2131945;27;19970;-44
2022/09/20 00:02:32;;;;;;;;;;;;;;;;;;2132049;27;19923;-45
2022/09/20 00:03:33;;;;;;;;;;;;;;;;;;2132060;27;19923;-44
2022/09/20 00:04:34;;;;;;;;;;;;;;;;;;2131867;27;20387;-44
2022/09/20 00:05:34;;;;;;;;;;;;;;;;;;2132016;27;19930;-46
2022/09/20 00:06:35;;;;;;;;;;;;;;;;;;2132249;27;20444;-46
2022/09/20 00:07:36;;;;;;;;;;;;;;;;;;2132040;27;19930;-44
2022/09/20 00:08:37;;;;;;;;;;;;;;;;;;2132121;27;19923;-44
2022/09/20 00:09:39;;;;;;;;;;;;;;;;;;2132116;27;19927;-44
2022/09/20 00:10:41;;;;;;;;;;;;;;;;;;2131906;27;19927;-44
2022/09/20 00:11:44;;;;;;;;;;;;;;;;;;2131664;27;19930;-44
2022/09/20 00:12:44;;;;;;;;;;;;;;;;;;2131925;27;19931;-45
2022/09/20 00:13:45;;;;;;;;;;;;;;;;;;2131531;27;20376;-42
2022/09/20 00:14:46;;;;;;;;;;;;;;;;;;2131967;27;19929;-42
2022/09/20 00:15:47;;;;;;;;;;;;;;;;;;2132111;27;20355;-42
2022/09/20 00:16:48;;;;;;;;;;;;;;;;;;2131803;27;19930;-42
2022/09/20 00:17:49;;;;;;;;;;;;;;;;;;2132157;27;19934;-41
2022/09/20 00:18:50;;;;;;;;;;;;;;;;;;2131866;27;19927;-41
2022/09/20 00:19:50;;;;;;;;;;;;;;;;;;2132057;27;19923;-42
2022/09/20 00:20:51;;;;;;;;;;;;;;;;;;2132007;27;19972;-41
2022/09/20 00:21:52;;;;;;;;;;;;;;;;;;2131846;27;20021;-41
2022/09/20 00:22:53;;;;;;;;;;;;;;;;;;2131921;27;20013;-41
2022/09/20 00:23:53;;;;;;;;;;;;;;;;;;2131604;27;20384;-41
2022/09/20 00:24:54;;;;;;;;;;;;;;;;;;2131817;27;19931;-42
2022/09/20 00:25:55;;;;;;;;;;;;;;;;;;2131759;27;19923;-42
2022/09/20 00:26:56;;;;;;;;;;;;;;;;;;2132035;27;20309;-42
2022/09/20 00:27:57;;;;;;;;;;;;;;;;;;2131901;27;19951;-41
2022/09/20 00:28:59;;;;;;;;;;;;;;;;;;2131969;27;19923;-42
2022/09/20 00:29:59;;;;;;;;;;;;;;;;;;2132019;27;20373;-42
2022/09/20 00:31:00;;;;;;;;;;;;;;;;;;2131803;27;19923;-42
2022/09/20 00:32:01;;;;;;;;;;;;;;;;;;2131793;27;19934;-42
2022/09/20 00:33:02;;;;;;;;;;;;;;;;;;2131803;27;20387;-41
2022/09/20 00:35:22;;;;;;;;;;;;;;;;;;2131795;27;19924;-42
2022/09/20 00:36:23;;;;;;;;;;;;;;;;;;2131773;27;19927;-42
2022/09/20 00:37:24;;;;;;;;;;;;;;;;;;2131737;27;19930;-42
2022/09/20 00:38:25;;;;;;;;;;;;;;;;;;2132152;27;19954;-44
2022/09/20 00:39:26;;;;;;;;;;;;;;;;;;2131875;27;20041;-45
2022/09/20 00:40:26;;;;;;;;;;;;;;;;;;2131794;27;19927;-47
2022/09/20 00:41:27;;;;;;;;;;;;;;;;;;2131781;27;19930;-44
2022/09/20 00:42:28;;;;;;;;;;;;;;;;;;2131931;27;19985;-44
2022/09/20 00:43:29;;;;;;;;;;;;;;;;;;2132006;27;19923;-45
2022/09/20 00:44:30;;;;;;;;;;;;;;;;;;2131694;27;19923;-45
2022/09/20 00:45:31;;;;;;;;;;;;;;;;;;2131922;27;19923;-45
2022/09/20 00:46:31;;;;;;;;;;;;;;;;;;2131676;27;19931;-44
2022/09/20 00:47:32;;;;;;;;;;;;;;;;;;2131774;27;19936;-44
2022/09/20 00:48:33;;;;;;;;;;;;;;;;;;2131696;27;19923;-44
2022/09/20 00:49:34;;;;;;;;;;;;;;;;;;2131876;27;19923;-45
2022/09/20 00:50:35;;;;;;;;;;;;;;;;;;2131858;27;19922;-44
2022/09/20 00:51:36;;;;;;;;;;;;;;;;;;2131822;27;19935;-44
2022/09/20 00:52:37;;;;;;;;;;;;;;;;;;2131664;27;20379;-45
2022/09/20 00:53:38;;;;;;;;;;;;;;;;;;2131734;27;20364;-45
2022/09/20 00:54:38;;;;;;;;;;;;;;;;;;2131712;27;19966;-44
2022/09/20 00:55:39;;;;;;;;;;;;;;;;;;2131712;27;19923;-45
2022/09/20 00:56:42;;;;;;;;;;;;;;;;;;2131685;27;19923;-44
2022/09/20 00:57:43;;;;;;;;;;;;;;;;;;2131719;27;19923;-44
2022/09/20 00:58:44;;;;;;;;;;;;;;;;;;2131659;27;19930;-44
2022/09/20 00:59:45;;;;;;;;;;;;;;;;;;2131851;27;19923;-44
2022/09/20 01:00:46;;;;;;;;;;;;;;;;;;2131703;27;19945;-44
2022/09/20 01:01:47;;;;;;;;;;;;;;;;;;2131662;27;19930;-44
2022/09/20 01:02:47;;;;;;;;;;;;;;;;;;2131811;27;20042;-44
2022/09/20 01:03:48;;;;;;;;;;;;;;;;;;2131806;27;20287;-44
2022/09/20 01:04:49;;;;;;;;;;;;;;;;;;2131729;27;20307;-44
2022/09/20 01:05:50;;;;;;;;;;;;;;;;;;2131853;27;19924;-44
2022/09/20 01:06:51;;;;;;;;;;;;;;;;;;2131589;27;20190;-44
2022/09/20 01:07:52;;;;;;;;;;;;;;;;;;2131742;27;20419;-44
2022/09/20 01:08:52;;;;;;;;;;;;;;;;;;2131676;27;19923;-44
2022/09/20 01:09:54;;;;;;;;;;;;;;;;;;2131765;27;19923;-44
2022/09/20 01:10:54;;;;;;;;;;;;;;;;;;2131681;27;19931;-44
2022/09/20 01:11:55;;;;;;;;;;;;;;;;;;2133051;27;20291;-44
2022/09/20 01:12:56;;;;;;;;;;;;;;;;;;2133236;27;20277;-46
2022/09/20 01:13:57;;;;;;;;;;;;;;;;;;2133119;27;20004;-45
2022/09/20 01:14:57;;;;;;;;;;;;;;;;;;2133371;27;19923;-44
2022/09/20 01:15:59;;;;;;;;;;;;;;;;;;2133215;27;19927;-44
2022/09/20 01:17:00;;;;;;;;;;;;;;;;;;2133172;27;19930;-45
2022/09/20 01:18:01;;;;;;;;;;;;;;;;;;2133139;27;20014;-44
2022/09/20 01:19:01;;;;;;;;;;;;;;;;;;2133138;27;20332;-44
2022/09/20 01:20:02;;;;;;;;;;;;;;;;;;2133062;27;19967;-44
2022/09/20 01:21:03;;;;;;;;;;;;;;;;;;2133056;27;19923;-44
2022/09/20 01:22:04;;;;;;;;;;;;;;;;;;2133122;27;20354;-45
2022/09/20 01:23:05;;;;;;;;;;;;;;;;;;2133127;27;19924;-44
2022/09/20 01:24:05;;;;;;;;;;;;;;;;;;2133324;27;19930;-45
2022/09/20 01:25:06;;;;;;;;;;;;;;;;;;2133106;27;19959;-44
2022/09/20 01:26:07;;;;;;;;;;;;;;;;;;2133194;27;19976;-44
2022/09/20 01:27:08;;;;;;;;;;;;;;;;;;2132928;27;19991;-44
2022/09/20 01:28:09;;;;;;;;;;;;;;;;;;2133163;27;20364;-44
2022/09/20 01:29:09;;;;;;;;;;;;;;;;;;2133044;27;19966;-45
2022/09/20 01:30:11;;;;;;;;;;;;;;;;;;2133022;27;19974;-45
2022/09/20 01:31:11;;;;;;;;;;;;;;;;;;2133010;27;20407;-44
2022/09/20 01:32:13;;;;;;;;;;;;;;;;;;2132980;27;19966;-44
2022/09/20 01:33:13;;;;;;;;;;;;;;;;;;2132986;27;19974;-45
2022/09/20 01:34:14;;;;;;;;;;;;;;;;;;2132964;27;19929;-44
2022/09/20 01:35:15;;;;;;;;;;;;;;;;;;2133175;27;19923;-44
2022/09/20 01:36:16;;;;;;;;;;;;;;;;;;2133001;27;19927;-46
2022/09/20 01:37:18;;;;;;;;;;;;;;;;;;2132954;27;19923;-44
2022/09/20 01:38:19;;;;;;;;;;;;;;;;;;2132996;27;20450;-44
2022/09/20 01:39:19;;;;;;;;;;;;;;;;;;2133126;27;19923;-46
2022/09/20 01:40:20;;;;;;;;;;;;;;;;;;2133064;27;20012;-44
2022/09/20 01:41:21;;;;;;;;;;;;;;;;;;2133036;27;19927;-44
2022/09/20 01:42:22;;;;;;;;;;;;;;;;;;2133012;27;19923;-44
2022/09/20 01:43:23;;;;;;;;;;;;;;;;;;2133052;27;19930;-44
2022/09/20 01:44:24;;;;;;;;;;;;;;;;;;2132820;27;20041;-44
2022/09/20 01:45:24;;;;;;;;;;;;;;;;;;2133072;27;19923;-44
2022/09/20 01:46:25;;;;;;;;;;;;;;;;;;2132859;27;20380;-45
2022/09/20 01:47:26;;;;;;;;;;;;;;;;;;2132943;27;19923;-44
2022/09/20 01:48:27;;;;;;;;;;;;;;;;;;2132918;27;20371;-45
2022/09/20 01:49:28;;;;;;;;;;;;;;;;;;2133328;27;19923;-45
2022/09/20 01:50:29;;;;;;;;;;;;;;;;;;2133277;27;19930;-41
2022/09/20 01:51:29;;;;;;;;;;;;;;;;;;2132945;27;20022;-41
2022/09/20 01:52:30;;;;;;;;;;;;;;;;;;2132899;27;20008;-41
2022/09/20 01:53:31;;;;;;;;;;;;;;;;;;2133067;27;19923;-44
2022/09/20 01:54:32;;;;;;;;;;;;;;;;;;2133010;27;19926;-44
2022/09/20 01:55:32;;;;;;;;;;;;;;;;;;2132942;27;19923;-44
2022/09/20 01:56:33;;;;;;;;;;;;;;;;;;2132790;27;19923;-45
2022/09/20 01:57:34;;;;;;;;;;;;;;;;;;2132991;27;19923;-44
2022/09/20 01:58:35;;;;;;;;;;;;;;;;;;2132815;27;19923;-44
2022/09/20 01:59:36;;;;;;;;;;;;;;;;;;2132831;27;19922;-45
2022/09/20 02:00:37;;;;;;;;;;;;;;;;;;2132779;27;19969;-44
2022/09/20 02:01:37;;;;;;;;;;;;;;;;;;2132962;27;20412;-44
2022/09/20 02:02:38;;;;;;;;;;;;;;;;;;2132811;27;20038;-44
2022/09/20 02:03:39;;;;;;;;;;;;;;;;;;2132910;27;19931;-45
2022/09/20 02:04:40;;;;;;;;;;;;;;;;;;2132785;27;19995;-43
2022/09/20 02:05:41;;;;;;;;;;;;;;;;;;2132943;27;19970;-45
2022/09/20 02:06:42;;;;;;;;;;;;;;;;;;2132907;27;19972;-46
2022/09/20 02:07:42;;;;;;;;;;;;;;;;;;2132738;27;20376;-45
2022/09/20 02:08:43;;;;;;;;;;;;;;;;;;2132861;27;20364;-44
2022/09/20 02:09:44;;;;;;;;;;;;;;;;;;2132955;27;19923;-41
2022/09/20 02:10:45;;;;;;;;;;;;;;;;;;2133091;27;19923;-41
2022/09/20 02:11:46;;;;;;;;;;;;;;;;;;2132472;27;20014;-42
2022/09/20 02:12:46;;;;;;;;;;;;;;;;;;2132750;27;19978;-41
2022/09/20 02:13:48;;;;;;;;;;;;;;;;;;2132654;27;19923;-41
2022/09/20 02:14:49;;;;;;;;;;;;;;;;;;2132842;27;19967;-41
2022/09/20 02:15:49;;;;;;;;;;;;;;;;;;2132543;27;19931;-41
2022/09/20 02:16:50;;;;;;;;;;;;;;;;;;2132599;27;19923;-41
2022/09/20 02:17:51;;;;;;;;;;;;;;;;;;2132790;27;20322;-41
2022/09/20 02:18:52;;;;;;;;;;;;;;;;;;2132736;27;19967;-41
2022/09/20 02:19:52;;;;;;;;;;;;;;;;;;2132669;27;20388;-41
2022/09/20 02:20:54;;;;;;;;;;;;;;;;;;2132694;27;19929;-41
2022/09/20 02:21:55;;;;;;;;;;;;;;;;;;2132829;27;19923;-41
2022/09/20 02:22:55;;;;;;;;;;;;;;;;;;2131944;27;19981;-41
2022/09/20 02:23:56;;;;;;;;;;;;;;;;;;2132918;27;19950;-41
2022/09/20 02:24:57;;;;;;;;;;;;;;;;;;2132614;27;20387;-41
2022/09/20 02:25:58;;;;;;;;;;;;;;;;;;2132810;27;19937;-41
2022/09/20 02:26:59;;;;;;;;;;;;;;;;;;2132607;27;19966;-41
2022/09/20 02:27:59;;;;;;;;;;;;;;;;;;2132588;27;19927;-41
2022/09/20 02:29:00;;;;;;;;;;;;;;;;;;2132734;27;19923;-41
2022/09/20 02:30:01;;;;;;;;;;;;;;;;;;2132654;27;20000;-41
2022/09/20 02:31:02;;;;;;;;;;;;;;;;;;2132664;27;20042;-41
2022/09/20 02:32:03;;;;;;;;;;;;;;;;;;2132586;27;19923;-41
2022/09/20 02:33:04;;;;;;;;;;;;;;;;;;2132616;27;20375;-41
2022/09/20 02:34:04;;;;;;;;;;;;;;;;;;2132668;27;19923;-41
2022/09/20 02:35:06;;;;;;;;;;;;;;;;;;2132739;27;19974;-41
2022/09/20 02:36:06;;;;;;;;;;;;;;;;;;2132579;27;20458;-41
2022/09/20 02:37:08;;;;;;;;;;;;;;;;;;2132564;27;19952;-41
2022/09/20 02:38:08;;;;;;;;;;;;;;;;;;2132608;27;20284;-41
2022/09/20 02:39:09;;;;;;;;;;;;;;;;;;2132568;27;20017;-41
2022/09/20 02:40:10;;;;;;;;;;;;;;;;;;2132521;27;19958;-41
2022/09/20 02:41:11;;;;;;;;;;;;;;;;;;2132651;27;20021;-41
2022/09/20 02:42:12;;;;;;;;;;;;;;;;;;2132543;27;19927;-41
2022/09/20 02:43:13;;;;;;;;;;;;;;;;;;2132584;27;19969;-41
2022/09/20 02:44:13;;;;;;;;;;;;;;;;;;2132625;27;19923;-41
2022/09/20 02:45:14;;;;;;;;;;;;;;;;;;2132468;27;19927;-41
2022/09/20 02:46:15;;;;;;;;;;;;;;;;;;2132683;27;19957;-41
2022/09/20 02:47:16;;;;;;;;;;;;;;;;;;2132460;27;20299;-41
2022/09/20 02:48:17;;;;;;;;;;;;;;;;;;2132510;27;20432;-41
2022/09/20 02:49:18;;;;;;;;;;;;;;;;;;2132652;27;19923;-41
2022/09/20 02:50:19;;;;;;;;;;;;;;;;;;2132520;27;19998;-41
2022/09/20 02:51:20;;;;;;;;;;;;;;;;;;2132439;27;19923;-40
2022/09/20 02:52:20;;;;;;;;;;;;;;;;;;2132478;27;20433;-41
2022/09/20 02:53:21;;;;;;;;;;;;;;;;;;2132478;27;19927;-41
2022/09/20 02:54:22;;;;;;;;;;;;;;;;;;2132413;27;19927;-41
2022/09/20 02:55:24;;;;;;;;;;;;;;;;;;2132555;27;20018;-41
2022/09/20 02:56:24;;;;;;;;;;;;;;;;;;2132431;27;19923;-41
2022/09/20 02:57:25;;;;;;;;;;;;;;;;;;2132504;27;20269;-41
2022/09/20 02:58:26;;;;;;;;;;;;;;;;;;2132412;27;19950;-41
2022/09/20 02:59:27;;;;;;;;;;;;;;;;;;2132436;27;19973;-41
2022/09/20 03:00:28;;;;;;;;;;;;;;;;;;2132489;27;20341;-40
2022/09/20 03:01:28;;;;;;;;;;;;;;;;;;2132378;27;20022;-40
2022/09/20 03:02:29;;;;;;;;;;;;;;;;;;2132450;27;19958;-41
2022/09/20 03:03:30;;;;;;;;;;;;;;;;;;2132376;27;19954;-41
2022/09/20 03:04:31;;;;;;;;;;;;;;;;;;2132550;27;20376;-41
2022/09/20 03:05:32;;;;;;;;;;;;;;;;;;2132332;27;20040;-41
2022/09/20 03:06:32;;;;;;;;;;;;;;;;;;2132524;27;19965;-41
2022/09/20 03:07:33;;;;;;;;;;;;;;;;;;2132420;27;20299;-41
2022/09/20 03:08:34;;;;;;;;;;;;;;;;;;2132349;27;19923;-41
2022/09/20 03:09:35;;;;;;;;;;;;;;;;;;2132497;27;19944;-41
2022/09/20 03:10:36;;;;;;;;;;;;;;;;;;2132332;27;20371;-41
2022/09/20 03:11:37;;;;;;;;;;;;;;;;;;2132002;27;19962;-42
2022/09/20 03:12:38;;;;;;;;;;;;;;;;;;2132158;27;20296;-40
2022/09/20 03:13:38;;;;;;;;;;;;;;;;;;2132310;27;19923;-41
2022/09/20 03:14:39;;;;;;;;;;;;;;;;;;2132377;27;19923;-41
2022/09/20 03:15:40;;;;;;;;;;;;;;;;;;2132323;27;20022;-41
2022/09/20 03:16:41;;;;;;;;;;;;;;;;;;2132342;27;19923;-41
2022/09/20 03:17:42;;;;;;;;;;;;;;;;;;2132429;27;20363;-41
2022/09/20 03:18:43;;;;;;;;;;;;;;;;;;2132334;27;19923;-41
2022/09/20 03:19:43;;;;;;;;;;;;;;;;;;2132294;27;19923;-41
2022/09/20 03:20:44;;;;;;;;;;;;;;;;;;2132445;27;19968;-41
2022/09/20 03:21:46;;;;;;;;;;;;;;;;;;2132319;27;19923;-41
2022/09/20 03:22:47;;;;;;;;;;;;;;;;;;2132302;27;19934;-41
2022/09/20 03:23:48;;;;;;;;;;;;;;;;;;2132436;27;20013;-41
2022/09/20 03:24:48;;;;;;;;;;;;;;;;;;2132342;27;19930;-41
2022/09/20 03:25:50;;;;;;;;;;;;;;;;;;2132536;27;20372;-44
2022/09/20 03:26:50;;;;;;;;;;;;;;;;;;2132511;27;19923;-41
2022/09/20 03:27:51;;;;;;;;;;;;;;;;;;2132364;27;20297;-41
2022/09/20 03:28:52;;;;;;;;;;;;;;;;;;2132308;27;19927;-41
2022/09/20 03:29:54;;;;;;;;;;;;;;;;;;2132207;27;19970;-41
2022/09/20 03:30:55;;;;;;;;;;;;;;;;;;2132192;27;19922;-41
2022/09/20 03:31:56;;;;;;;;;;;;;;;;;;2132317;27;19927;-40
2022/09/20 03:32:57;;;;;;;;;;;;;;;;;;2132217;27;19984;-41
2022/09/20 03:33:58;;;;;;;;;;;;;;;;;;2132343;27;19923;-41
2022/09/20 03:34:59;;;;;;;;;;;;;;;;;;2130918;27;19923;-41
2022/09/20 03:36:00;;;;;;;;;;;;;;;;;;2132179;27;20399;-41
2022/09/20 03:37:01;;;;;;;;;;;;;;;;;;2132060;27;19930;-41
2022/09/20 03:38:02;;;;;;;;;;;;;;;;;;2132327;27;19927;-41
2022/09/20 03:39:03;;;;;;;;;;;;;;;;;;2132212;27;19985;-41
2022/09/20 03:40:03;;;;;;;;;;;;;;;;;;2132134;27;19976;-41
2022/09/20 03:41:04;;;;;;;;;;;;;;;;;;2132244;27;19930;-40
2022/09/20 03:42:05;;;;;;;;;;;;;;;;;;2132293;27;19927;-44
2022/09/20 03:43:06;;;;;;;;;;;;;;;;;;2132179;27;20265;-44
2022/09/20 03:44:07;;;;;;;;;;;;;;;;;;2132114;27;19927;-44
2022/09/20 03:45:08;;;;;;;;;;;;;;;;;;2132179;27;19923;-44
2022/09/20 03:46:09;;;;;;;;;;;;;;;;;;2132304;27;20272;-44
2022/09/20 03:47:12;;;;;;;;;;;;;;;;;;2132218;27;19923;-45
2022/09/20 03:48:12;;;;;;;;;;;;;;;;;;2132215;27;19927;-45
2022/09/20 03:49:13;;;;;;;;;;;;;;;;;;2132303;27;19981;-44
2022/09/20 03:50:14;;;;;;;;;;;;;;;;;;2132213;27;19968;-44
2022/09/20 03:51:15;;;;;;;;;;;;;;;;;;2132094;27;19923;-44
2022/09/20 03:52:15;;;;;;;;;;;;;;;;;;2132198;27;20022;-44
2022/09/20 03:53:17;;;;;;;;;;;;;;;;;;2132208;27;19927;-45
2022/09/20 03:54:18;;;;;;;;;;;;;;;;;;2132235;27;19923;-46
2022/09/20 03:55:18;;;;;;;;;;;;;;;;;;2132081;27;19923;-44
2022/09/20 03:56:19;;;;;;;;;;;;;;;;;;2132212;27;19923;-41
2022/09/20 03:57:20;;;;;;;;;;;;;;;;;;2132161;27;19929;-40
2022/09/20 03:58:21;;;;;;;;;;;;;;;;;;2132204;27;20443;-41
2022/09/20 03:59:22;;;;;;;;;;;;;;;;;;2132466;27;19930;-41
2022/09/20 04:00:22;;;;;;;;;;;;;;;;;;2132024;27;20014;-41
2022/09/20 04:01:23;;;;;;;;;;;;;;;;;;2132094;27;19974;-41
2022/09/20 04:02:24;;;;;;;;;;;;;;;;;;2131969;27;19923;-41
2022/09/20 04:03:25;;;;;;;;;;;;;;;;;;2132223;27;19923;-41
2022/09/20 04:04:26;;;;;;;;;;;;;;;;;;2132071;27;19971;-41
2022/09/20 04:05:27;;;;;;;;;;;;;;;;;;2131901;27;19930;-41
2022/09/20 04:06:28;;;;;;;;;;;;;;;;;;2131885;27;20026;-41
2022/09/20 04:07:29;;;;;;;;;;;;;;;;;;2132034;27;19923;-41
2022/09/20 04:08:29;;;;;;;;;;;;;;;;;;2123464;28;20014;-41
2022/09/20 04:09:30;;;;;;;;;;;;;;;;;;2129495;27;20333;-44
2022/09/20 04:10:31;;;;;;;;;;;;;;;;;;2132181;27;19961;-43
2022/09/20 04:11:34;;;;;;;;;;;;;;;;;;2131733;27;20454;-44
2022/09/20 04:12:35;;;;;;;;;;;;;;;;;;2132183;27;19923;-45
2022/09/20 04:13:36;;;;;;;;;;;;;;;;;;2131938;27;19967;-45
2022/09/20 04:14:36;;;;;;;;;;;;;;;;;;2131956;27;19927;-45
2022/09/20 04:15:37;;;;;;;;;;;;;;;;;;2132090;27;19930;-43
2022/09/20 04:16:38;;;;;;;;;;;;;;;;;;2132003;27;19946;-44
2022/09/20 04:17:39;;;;;;;;;;;;;;;;;;2132036;27;20033;-45
2022/09/20 04:18:40;;;;;;;;;;;;;;;;;;2132040;27;19923;-44
2022/09/20 04:19:41;;;;;;;;;;;;;;;;;;2132072;27;19923;-41
2022/09/20 04:20:42;;;;;;;;;;;;;;;;;;2131941;27;20026;-40
2022/09/20 04:21:43;;;;;;;;;;;;;;;;;;2131993;27;19930;-40
2022/09/20 04:22:44;;;;;;;;;;;;;;;;;;2132077;27;19972;-41
2022/09/20 04:23:45;;;;;;;;;;;;;;;;;;2132067;27;19930;-41
2022/09/20 04:24:46;;;;;;;;;;;;;;;;;;2131774;27;19930;-41
2022/09/20 04:25:47;;;;;;;;;;;;;;;;;;2131887;27;19927;-41
2022/09/20 04:26:48;;;;;;;;;;;;;;;;;;2132497;27;19930;-41
2022/09/20 04:27:48;;;;;;;;;;;;;;;;;;2132132;27;20391;-41
2022/09/20 04:28:50;;;;;;;;;;;;;;;;;;2131929;27;19927;-41
2022/09/20 04:29:51;;;;;;;;;;;;;;;;;;2132019;27;19923;-41
2022/09/20 04:30:52;;;;;;;;;;;;;;;;;;2132202;27;19927;-45
2022/09/20 04:31:53;;;;;;;;;;;;;;;;;;2131884;27;19930;-44
2022/09/20 04:32:54;;;;;;;;;;;;;;;;;;2131890;27;19946;-46
2022/09/20 04:33:56;;;;;;;;;;;;;;;;;;2132109;27;20371;-41
2022/09/20 04:36:28;;;;;;;;;;;;;;;;;;2131957;27;19927;-41
2022/09/20 04:37:31;;;;;;;;;;;;;;;;;;2131785;27;19923;-41
2022/09/20 04:38:34;;;;;;;;;;;;;;;;;;2131779;27;19940;-41
2022/09/20 04:39:35;;;;;;;;;;;;;;;;;;2131923;27;19969;-41
2022/09/20 04:40:36;;;;;;;;;;;;;;;;;;2131796;27;19927;-41
2022/09/20 04:41:37;;;;;;;;;;;;;;;;;;2131856;27;19927;-41
2022/09/20 04:42:38;;;;;;;;;;;;;;;;;;2131824;27;19923;-41
2022/09/20 04:43:38;;;;;;;;;;;;;;;;;;2131941;27;19930;-41
2022/09/20 04:44:39;;;;;;;;;;;;;;;;;;2131644;27;19945;-41
2022/09/20 04:45:40;;;;;;;;;;;;;;;;;;2131795;27;19923;-41
2022/09/20 04:46:41;;;;;;;;;;;;;;;;;;2132917;27;19923;-41
2022/09/20 04:47:42;;;;;;;;;;;;;;;;;;2133454;27;20323;-41
2022/09/20 04:48:43;;;;;;;;;;;;;;;;;;2133290;27;20017;-41
2022/09/20 04:49:43;;;;;;;;;;;;;;;;;;2133247;27;19978;-41
2022/09/20 04:50:44;;;;;;;;;;;;;;;;;;2133489;27;19974;-41
2022/09/20 04:51:45;;;;;;;;;;;;;;;;;;2133421;27;19930;-41
2022/09/20 04:52:46;;;;;;;;;;;;;;;;;;2133248;27;19978;-41
2022/09/20 04:53:46;;;;;;;;;;;;;;;;;;2133217;27;19923;-41
2022/09/20 04:54:47;;;;;;;;;;;;;;;;;;2133294;27;19923;-41
2022/09/20 04:55:48;;;;;;;;;;;;;;;;;;2133256;27;19923;-41
2022/09/20 04:56:50;;;;;;;;;;;;;;;;;;2133308;27;19988;-41
2022/09/20 04:57:52;;;;;;;;;;;;;;;;;;2133403;27;19923;-41
2022/09/20 04:58:53;;;;;;;;;;;;;;;;;;2133188;27;20407;-41
2022/09/20 04:59:54;;;;;;;;;;;;;;;;;;2133379;27;19930;-41
2022/09/20 05:00:55;;;;;;;;;;;;;;;;;;2133190;27;19923;-41
2022/09/20 05:01:55;;;;;;;;;;;;;;;;;;2133277;27;19923;-41
2022/09/20 05:02:56;;;;;;;;;;;;;;;;;;2133458;27;20360;-41
2022/09/20 05:03:57;;;;;;;;;;;;;;;;;;2133302;27;20436;-44
2022/09/20 05:04:59;;;;;;;;;;;;;;;;;;2133376;27;19930;-44
2022/09/20 05:06:00;;;;;;;;;;;;;;;;;;2133153;27;19930;-44
2022/09/20 05:07:02;;;;;;;;;;;;;;;;;;2133235;27;19923;-44
2022/09/20 05:08:02;;;;;;;;;;;;;;;;;;2133305;27;19927;-44
2022/09/20 05:09:04;;;;;;;;;;;;;;;;;;2133366;27;20050;-44
2022/09/20 05:10:06;;;;;;;;;;;;;;;;;;2133438;27;19923;-43
2022/09/20 05:11:08;;;;;;;;;;;;;;;;;;2133143;27;19931;-45
2022/09/20 05:12:09;;;;;;;;;;;;;;;;;;2133100;27;20360;-44
2022/09/20 05:13:10;;;;;;;;;;;;;;;;;;2133202;27;19954;-44
2022/09/20 05:14:12;;;;;;;;;;;;;;;;;;2133155;27;20381;-44
2022/09/20 05:15:13;;;;;;;;;;;;;;;;;;2133244;27;19923;-45
2022/09/20 05:16:14;;;;;;;;;;;;;;;;;;2133264;27;20384;-45
2022/09/20 05:17:15;;;;;;;;;;;;;;;;;;2132986;27;19931;-44
2022/09/20 05:18:16;;;;;;;;;;;;;;;;;;2133118;27;20042;-44
2022/09/20 05:19:16;;;;;;;;;;;;;;;;;;2133131;27;19927;-45
2022/09/20 05:20:17;;;;;;;;;;;;;;;;;;2133249;27;19923;-43
2022/09/20 05:21:18;;;;;;;;;;;;;;;;;;2133017;27;20026;-45
2022/09/20 05:22:19;;;;;;;;;;;;;;;;;;2133108;27;19930;-44
2022/09/20 05:23:20;;;;;;;;;;;;;;;;;;2133037;27;19924;-44
2022/09/20 05:24:21;;;;;;;;;;;;;;;;;;2133240;27;19930;-44
2022/09/20 05:25:22;;;;;;;;;;;;;;;;;;2133430;27;19923;-42
2022/09/20 05:26:23;;;;;;;;;;;;;;;;;;2133004;27;19966;-44
2022/09/20 05:27:24;;;;;;;;;;;;;;;;;;2133127;27;19923;-44
2022/09/20 05:28:25;;;;;;;;;;;;;;;;;;2133183;27;20280;-43
2022/09/20 05:29:26;;;;;;;;;;;;;;;;;;2133265;27;20288;-40
2022/09/20 05:30:27;;;;;;;;;;;;;;;;;;2133186;27;20157;-40
2022/09/20 05:31:27;;;;;;;;;;;;;;;;;;2133003;27;19930;-40
2022/09/20 05:32:28;;;;;;;;;;;;;;;;;;2132971;27;19931;-41
2022/09/20 05:33:29;;;;;;;;;;;;;;;;;;2133143;27;19923;-40
2022/09/20 05:34:30;;;;;;;;;;;;;;;;;;2133064;27;19983;-40
2022/09/20 05:35:31;;;;;;;;;;;;;;;;;;2133051;27;19927;-40
2022/09/20 05:36:32;;;;;;;;;;;;;;;;;;2132993;27;19923;-40
2022/09/20 05:37:35;;;;;;;;;;;;;;;;;;2133527;27;19975;-40
2022/09/20 05:38:36;;;;;;;;;;;;;;;;;;2133247;27;19923;-41
2022/09/20 05:39:37;;;;;;;;;;;;;;;;;;2133050;27;19930;-40
2022/09/20 05:40:38;;;;;;;;;;;;;;;;;;2133047;27;20423;-40
2022/09/20 05:41:39;;;;;;;;;;;;;;;;;;2132927;27;20371;-41
2022/09/20 05:42:40;;;;;;;;;;;;;;;;;;2133583;27;19923;-44
2022/09/20 05:43:41;;;;;;;;;;;;;;;;;;2132982;27;20382;-45
2022/09/20 05:44:42;;;;;;;;;;;;;;;;;;2132903;27;19927;-44
2022/09/20 05:45:43;;;;;;;;;;;;;;;;;;2132998;27;19929;-44
2022/09/20 05:46:44;;;;;;;;;;;;;;;;;;2132914;27;20261;-44
2022/09/20 05:47:45;;;;;;;;;;;;;;;;;;2133279;27;19937;-41
2022/09/20 05:48:45;;;;;;;;;;;;;;;;;;2132935;27;19969;-40
2022/09/20 05:49:46;;;;;;;;;;;;;;;;;;2133092;27;19941;-41
2022/09/20 05:50:47;;;;;;;;;;;;;;;;;;2132913;27;19929;-41
2022/09/20 05:51:48;;;;;;;;;;;;;;;;;;2132964;27;19923;-41
2022/09/20 05:52:49;;;;;;;;;;;;;;;;;;2132910;27;19923;-41
2022/09/20 05:53:50;;;;;;;;;;;;;;;;;;2132884;27;20341;-41
2022/09/20 05:54:51;;;;;;;;;;;;;;;;;;2133456;27;19952;-41
2022/09/20 05:55:52;;;;;;;;;;;;;;;;;;2133015;27;19923;-41
2022/09/20 05:56:52;;;;;;;;;;;;;;;;;;2133029;27;20340;-44
2022/09/20 05:57:55;;;;;;;;;;;;;;;;;;2132012;27;19923;-44
2022/09/20 05:58:56;;;;;;;;;;;;;;;;;;2132860;27;19923;-44
2022/09/20 05:59:57;;;;;;;;;;;;;;;;;;2132904;27;19941;-45
2022/09/20 06:00:58;;;;;;;;;;;;;;;;;;2132879;27;19927;-41
2022/09/20 06:01:59;;;;;;;;;;;;;;;;;;2132698;27;19930;-41
2022/09/20 06:03:00;;;;;;;;;;;;;;;;;;2133120;27;20065;-41
2022/09/20 06:04:01;;;;;;;;;;;;;;;;;;2132795;27;20210;-41
2022/09/20 06:05:02;;;;;;;;;;;;;;;;;;2132922;27;19967;-41
2022/09/20 06:06:02;;;;;;;;;;;;;;;;;;2132335;27;19979;-41
2022/09/20 06:07:03;;;;;;;;;;;;;;;;;;2132406;27;19927;-41
2022/09/20 06:08:04;;;;;;;;;;;;;;;;;;2132778;27;19924;-40
2022/09/20 06:09:05;;;;;;;;;;;;;;;;;;2132883;27;20007;-41
2022/09/20 06:10:06;;;;;;;;;;;;;;;;;;2133047;27;19923;-41
2022/09/20 06:11:07;;;;;;;;;;;;;;;;;;2132069;27;19923;-41
2022/09/20 06:12:08;;;;;;;;;;;;;;;;;;2124293;27;19976;-41
2022/09/20 06:13:10;;;;;;;;;;;;;;;;;;2124165;28;19927;-41
2022/09/20 06:14:11;;;;;;;;;;;;;;;;;;2124216;28;19938;-41
2022/09/20 06:15:12;;;;;;;;;;;;;;;;;;2124219;28;20174;-41
2022/09/20 06:16:12;;;;;;;;;;;;;;;;;;2124173;28;20383;-41
2022/09/20 06:17:13;;;;;;;;;;;;;;;;;;2124226;27;19966;-40
2022/09/20 06:18:14;;;;;;;;;;;;;;;;;;2124316;28;20316;-40
2022/09/20 06:19:16;;;;;;;;;;;;;;;;;;2124116;28;19932;-41
2022/09/20 06:20:16;;;;;;;;;;;;;;;;;;2124308;28;19931;-45
2022/09/20 06:21:17;;;;;;;;;;;;;;;;;;2124199;27;20360;-44
2022/09/20 06:22:18;;;;;;;;;;;;;;;;;;2124152;28;19931;-44
2022/09/20 06:23:20;;;;;;;;;;;;;;;;;;2124268;28;19963;-44
2022/09/20 06:24:21;;;;;;;;;;;;;;;;;;2124121;28;20302;-44
2022/09/20 06:25:22;;;;;;;;;;;;;;;;;;2124150;28;20381;-43
2022/09/20 06:26:23;;;;;;;;;;;;;;;;;;2124060;27;19931;-44
2022/09/20 06:27:24;;;;;;;;;;;;;;;;;;2124229;28;19931;-44
2022/09/20 06:28:25;;;;;;;;;;;;;;;;;;2124104;28;20429;-45
2022/09/20 06:29:26;;;;;;;;;;;;;;;;;;2124256;28;20017;-41
2022/09/20 06:30:26;;;;;;;;;;;;;;;;;;2124099;28;19931;-41
2022/09/20 06:31:27;;;;;;;;;;;;;;;;;;2124004;27;19923;-41
2022/09/20 06:32:28;;;;;;;;;;;;;;;;;;2124177;28;19930;-41
2022/09/20 06:33:29;;;;;;;;;;;;;;;;;;2124318;28;19931;-41
2022/09/20 06:34:30;;;;;;;;;;;;;;;;;;2124087;28;19924;-41
2022/09/20 06:35:31;;;;;;;;;;;;;;;;;;2123997;28;19923;-41
2022/09/20 06:41:50;;;;;;;;;;;;;;;;;;2123942;27;20368;-44
2022/09/20 06:42:52;;;;;;;;;;;;;;;;;;2124158;28;19924;-44
2022/09/20 06:43:57;;;;;;;;;;;;;;;;;;2124175;28;19931;-45
2022/09/20 06:44:58;;;;;;;;;;;;;;;;;;2124037;28;19923;-45
2022/09/20 06:45:59;;;;;;;;;;;;;;;;;;2124295;28;20269;-45
2022/09/20 06:47:00;;;;;;;;;;;;;;;;;;2124260;27;20280;-41
2022/09/20 06:48:01;;;;;;;;;;;;;;;;;;2124489;28;19923;-44
2022/09/20 06:49:02;;;;;;;;;;;;;;;;;;2124163;28;19930;-41
2022/09/20 06:50:03;;;;;;;;;;;;;;;;;;2123990;28;19927;-41
2022/09/20 06:51:04;;;;;;;;;;;;;;;;;;2123896;28;19924;-41
2022/09/20 06:52:05;;;;;;;;;;;;;;;;;;2123873;27;19923;-41
2022/09/20 06:53:06;;;;;;;;;;;;;;;;;;2123974;28;20026;-41
2022/09/20 06:54:10;;;;;;;;;;;;;;;;;;2124273;28;19923;-44
2022/09/20 06:55:10;;;;;;;;;;;;;;;;;;2123884;28;20273;-43
2022/09/20 06:56:11;;;;;;;;;;;;;;;;;;2124015;28;20011;-43
2022/09/20 06:57:12;;;;;;;;;;;;;;;;;;2132432;27;19927;-43
2022/09/20 06:58:13;;;;;;;;;;;;;;;;;;2132326;27;19923;-43
2022/09/20 06:59:14;;;;;;;;;;;;;;;;;;2132815;27;19992;-43
2022/09/20 07:00:15;;;;;;;;;;;;;;;;;;2132438;27;19954;-43
2022/09/20 07:01:16;;;;;;;;;;;;;;;;;;2132599;27;19923;-43
2022/09/20 07:02:29;;;;;;;;;;;;;;;;;;2132404;27;20373;-44
2022/09/20 07:03:30;;;;;;;;;;;;;;;;;;2132561;27;19923;-43
2022/09/20 07:04:31;;;;;;;;;;;;;;;;;;2132566;27;20026;-45